createdAt,value
2019-05-20T00:00:09.588Z,98.30
2019-05-20T00:02:38.001Z,99.60
2019-05-20T00:05:06.628Z,97.30
2019-05-20T00:07:35.088Z,99.30
2019-05-20T00:10:07.105Z,98.40
2019-05-20T00:12:35.506Z,98.40
2019-05-20T00:15:06.920Z,98.70
2019-05-20T00:17:35.337Z,98.90
2019-05-20T00:20:06.057Z,99.90
2019-05-20T00:22:34.476Z,99.30
2019-05-20T00:25:03.526Z,99.40
2019-05-20T00:27:31.923Z,99.40
2019-05-20T00:30:00.304Z,99.50
2019-05-20T00:32:40.676Z,98.60
2019-05-20T00:34:58.816Z,99.00
2019-05-20T00:37:27.208Z,98.70
2019-05-20T00:39:55.588Z,99.90
2019-05-20T00:42:23.998Z,99.90
2019-05-20T00:44:52.392Z,99.90
2019-05-20T00:47:20.785Z,99.90
2019-05-20T00:49:49.168Z,99.50
2019-05-20T00:52:17.561Z,97.90
2019-05-20T00:54:45.972Z,98.40
2019-05-20T00:57:14.362Z,98.70
2019-05-20T00:59:42.796Z,99.90
2019-05-20T01:02:11.337Z,99.90
2019-05-20T01:04:39.760Z,99.90
2019-05-20T01:07:08.163Z,99.70
2019-05-20T01:09:36.561Z,98.80
2019-05-20T01:12:05.020Z,99.90
2019-05-20T01:14:33.416Z,98.90
2019-05-20T01:17:02.044Z,99.30
2019-05-20T01:19:30.549Z,99.90
2019-05-20T01:21:58.968Z,98.50
2019-05-20T01:24:27.359Z,99.90
2019-05-20T01:26:55.746Z,99.90
2019-05-20T01:29:24.141Z,99.90
2019-05-20T01:31:52.520Z,99.60
2019-05-20T01:34:20.926Z,98.00
2019-05-20T01:36:49.322Z,99.90
2019-05-20T01:39:17.780Z,99.90
2019-05-20T01:41:46.181Z,99.90
2019-05-20T01:44:14.584Z,99.90
2019-05-20T01:46:42.976Z,99.90
2019-05-20T01:49:11.364Z,99.90
2019-05-20T01:51:39.748Z,99.90
2019-05-20T01:54:08.161Z,99.90
2019-05-20T01:56:36.566Z,99.90
2019-05-20T01:59:05.031Z,99.90
2019-05-20T02:01:33.448Z,99.70
2019-05-20T02:04:01.811Z,99.90
2019-05-20T02:06:30.224Z,99.90
2019-05-20T02:08:58.690Z,99.90
2019-05-20T02:11:27.097Z,99.90
2019-05-20T02:13:57.122Z,99.90
2019-05-20T02:16:27.449Z,99.90
2019-05-20T02:18:55.824Z,99.90
2019-05-20T02:21:24.234Z,99.90
2019-05-20T02:23:52.616Z,99.90
2019-05-20T02:26:21.037Z,99.70
2019-05-20T02:28:49.416Z,99.90
2019-05-20T02:31:17.820Z,99.90
2019-05-20T02:33:51.945Z,99.90
2019-05-20T02:36:16.328Z,99.90
2019-05-20T02:38:44.714Z,99.90
2019-05-20T02:41:13.125Z,99.90
2019-05-20T02:43:41.574Z,99.90
2019-05-20T02:46:10.033Z,99.90
2019-05-20T02:48:38.420Z,99.90
2019-05-20T02:51:06.843Z,99.90
2019-05-20T02:53:35.234Z,99.90
2019-05-20T02:56:03.638Z,99.90
2019-05-20T02:58:32.011Z,99.90
2019-05-20T03:01:00.414Z,99.90
2019-05-20T03:03:29.067Z,99.90
2019-05-20T03:05:57.471Z,99.90
2019-05-20T03:08:25.850Z,99.90
2019-05-20T03:10:54.250Z,99.90
2019-05-20T03:13:22.654Z,99.90
2019-05-20T03:15:51.061Z,99.90
2019-05-20T03:18:19.451Z,99.90
2019-05-20T03:20:47.846Z,99.90
2019-05-20T03:23:16.233Z,99.90
2019-05-20T03:25:44.698Z,99.90
2019-05-20T03:28:13.100Z,99.90
2019-05-20T03:30:41.649Z,99.90
2019-05-20T03:33:10.042Z,99.90
2019-05-20T03:35:38.428Z,99.90
2019-05-20T03:38:06.824Z,99.90
2019-05-20T03:40:35.206Z,99.90
2019-05-20T03:43:03.620Z,99.90
2019-05-20T03:45:32.013Z,99.90
2019-05-20T03:48:00.417Z,99.90
2019-05-20T03:50:28.793Z,99.90
2019-05-20T03:52:57.194Z,99.90
2019-05-20T03:55:25.582Z,99.90
2019-05-20T03:57:53.990Z,99.90
2019-05-20T04:00:37.363Z,99.90
2019-05-20T04:03:05.760Z,99.90
2019-05-20T04:05:34.147Z,99.90
2019-05-20T04:08:02.541Z,99.90
2019-05-20T04:10:30.935Z,99.90
2019-05-20T04:12:59.345Z,99.90
2019-05-20T04:15:27.730Z,99.90
2019-05-20T04:17:56.210Z,99.90
2019-05-20T04:20:24.585Z,99.90
2019-05-20T04:22:52.980Z,99.90
2019-05-20T04:25:21.364Z,99.90
2019-05-20T04:27:49.758Z,99.90
2019-05-20T04:30:19.187Z,99.90
2019-05-20T04:32:47.809Z,99.90
2019-05-20T04:35:22.307Z,99.90
2019-05-20T04:37:46.395Z,99.90
2019-05-20T04:40:14.801Z,99.90
2019-05-20T04:42:43.191Z,99.90
2019-05-20T04:45:13.321Z,99.90
2019-05-20T04:47:41.715Z,99.90
2019-05-20T04:50:10.345Z,99.90
2019-05-20T04:52:38.748Z,99.90
2019-05-20T04:55:07.781Z,99.90
2019-05-20T04:57:36.179Z,99.90
2019-05-20T05:00:07.783Z,99.90
2019-05-20T05:02:36.184Z,99.90
2019-05-20T05:05:06.522Z,99.90
2019-05-20T05:07:34.912Z,99.90
2019-05-20T05:10:04.561Z,99.90
2019-05-20T05:12:32.949Z,99.90
2019-05-20T05:15:01.433Z,99.90
2019-05-20T05:17:29.810Z,99.90
2019-05-20T05:19:58.260Z,99.90
2019-05-20T05:22:26.929Z,99.90
2019-05-20T05:24:55.341Z,99.90
2019-05-20T05:27:23.722Z,99.90
2019-05-20T05:29:52.162Z,99.90
2019-05-20T05:32:22.264Z,99.90
2019-05-20T05:34:50.673Z,99.90
2019-05-20T05:37:19.077Z,99.90
2019-05-20T05:39:47.469Z,99.90
2019-05-20T05:42:15.874Z,99.90
2019-05-20T05:44:44.299Z,99.90
2019-05-20T05:47:12.690Z,99.90
2019-05-20T05:49:41.085Z,99.90
2019-05-20T05:52:09.476Z,99.90
2019-05-20T05:54:37.878Z,99.90
2019-05-20T05:57:06.252Z,99.90
2019-05-20T05:59:34.662Z,99.90
2019-05-20T06:02:03.076Z,99.90
2019-05-20T06:04:31.461Z,99.90
2019-05-20T06:06:59.848Z,99.90
2019-05-20T06:09:28.257Z,99.90
2019-05-20T06:11:56.662Z,99.90
2019-05-20T06:14:25.060Z,99.90
2019-05-20T06:16:53.456Z,99.90
2019-05-20T06:19:21.919Z,99.90
2019-05-20T06:21:50.314Z,99.90
2019-05-20T06:24:18.715Z,99.90
2019-05-20T06:26:47.099Z,99.90
2019-05-20T06:29:15.515Z,99.90
2019-05-20T06:31:43.928Z,99.90
2019-05-20T06:34:12.313Z,99.90
2019-05-20T06:36:42.392Z,99.90
2019-05-20T06:39:11.668Z,99.90
2019-05-20T06:41:40.329Z,99.90
2019-05-20T06:44:08.789Z,99.90
2019-05-20T06:46:37.190Z,99.90
2019-05-20T06:49:05.578Z,99.90
2019-05-20T06:51:33.977Z,99.90
2019-05-20T06:54:02.446Z,99.90
2019-05-20T06:56:30.851Z,99.90
2019-05-20T06:58:59.271Z,99.70
2019-05-20T07:01:27.666Z,99.90
2019-05-20T07:03:56.057Z,99.90
2019-05-20T07:06:24.479Z,99.90
2019-05-20T07:08:52.916Z,99.90
2019-05-20T07:11:21.397Z,99.90
2019-05-20T07:13:49.786Z,99.10
2019-05-20T07:16:18.182Z,99.00
2019-05-20T07:18:46.573Z,99.10
2019-05-20T07:21:14.984Z,99.20
2019-05-20T07:23:43.464Z,99.50
2019-05-20T07:26:11.945Z,99.50
2019-05-20T07:28:40.361Z,99.50
2019-05-20T07:31:08.834Z,99.10
2019-05-20T07:33:37.216Z,98.70
2019-05-20T07:36:09.366Z,98.90
2019-05-20T07:38:35.899Z,98.60
2019-05-20T07:41:04.443Z,98.50
2019-05-20T07:43:32.842Z,98.70
2019-05-20T07:46:02.480Z,97.70
2019-05-20T07:48:32.202Z,97.40
2019-05-20T07:51:02.587Z,96.70
2019-05-20T07:53:31.668Z,96.90
2019-05-20T07:56:08.493Z,96.60
2019-05-20T07:58:39.144Z,96.30
2019-05-20T08:01:07.722Z,96.30
2019-05-20T08:03:38.570Z,96.40
2019-05-20T08:06:06.436Z,96.10
2019-05-20T08:08:34.950Z,96.00
2019-05-20T08:11:03.617Z,95.70
2019-05-20T08:13:32.012Z,96.00
2019-05-20T08:16:00.427Z,96.00
2019-05-20T08:18:28.833Z,95.70
2019-05-20T08:20:57.293Z,95.50
2019-05-20T08:23:25.702Z,95.00
2019-05-20T08:25:54.125Z,95.00
2019-05-20T08:28:22.536Z,94.70
2019-05-20T08:30:50.941Z,94.90
2019-05-20T08:33:19.358Z,95.00
2019-05-20T08:35:47.750Z,94.90
2019-05-20T08:38:16.237Z,94.70
2019-05-20T08:40:48.272Z,94.70
2019-05-20T08:43:14.755Z,94.50
2019-05-20T08:45:43.265Z,94.60
2019-05-20T08:48:11.686Z,94.40
2019-05-20T08:50:40.098Z,94.80
2019-05-20T08:53:09.028Z,94.10
2019-05-20T08:55:37.430Z,94.70
2019-05-20T08:58:05.842Z,94.60
2019-05-20T09:00:34.217Z,94.30
2019-05-20T09:03:02.626Z,94.20
2019-05-20T09:05:31.024Z,94.20
2019-05-20T09:08:03.495Z,94.50
2019-05-20T09:10:29.560Z,94.40
2019-05-20T09:12:57.974Z,93.80
2019-05-20T09:15:26.428Z,93.60
2019-05-20T09:17:54.836Z,93.80
2019-05-20T09:20:24.083Z,93.60
2019-05-20T09:22:52.511Z,93.40
2019-05-20T09:25:24.031Z,93.50
2019-05-20T09:27:52.452Z,93.30
2019-05-20T09:30:20.921Z,92.90
2019-05-20T09:32:49.402Z,93.20
2019-05-20T09:35:17.865Z,93.30
2019-05-20T09:37:46.282Z,93.10
2019-05-20T09:40:17.749Z,92.60
2019-05-20T09:42:46.183Z,92.80
2019-05-20T09:45:14.731Z,93.00
2019-05-20T09:47:43.132Z,92.30
2019-05-20T09:50:11.530Z,92.40
2019-05-20T09:52:39.934Z,92.10
2019-05-20T09:55:08.576Z,93.20
2019-05-20T09:57:36.978Z,92.10
2019-05-20T10:00:07.395Z,92.80
2019-05-20T10:02:38.232Z,93.30
2019-05-20T10:05:06.530Z,92.60
2019-05-20T10:07:34.938Z,93.20
2019-05-20T10:10:04.878Z,92.90
2019-05-20T10:12:45.548Z,92.80
2019-05-20T10:15:04.293Z,93.30
2019-05-20T10:17:32.712Z,92.90
2019-05-20T10:20:01.205Z,92.90
2019-05-20T10:22:29.586Z,93.10
2019-05-20T10:24:58.066Z,93.20
2019-05-20T10:27:26.484Z,93.90
2019-05-20T10:29:54.902Z,93.30
2019-05-20T10:32:23.363Z,92.60
2019-05-20T10:34:51.774Z,93.60
2019-05-20T10:37:20.249Z,92.50
2019-05-20T10:39:48.669Z,92.80
2019-05-20T10:42:17.162Z,92.80
2019-05-20T10:44:45.570Z,92.50
2019-05-20T10:47:14.013Z,92.30
2019-05-20T10:49:42.453Z,92.30
2019-05-20T10:52:10.862Z,91.80
2019-05-20T10:54:39.276Z,92.50
2019-05-20T10:57:07.668Z,92.80
2019-05-20T10:59:36.080Z,92.90
2019-05-20T11:02:04.553Z,92.00
2019-05-20T11:04:35.389Z,93.10
2019-05-20T11:07:03.146Z,92.50
2019-05-20T11:09:31.603Z,91.90
2019-05-20T11:11:59.990Z,92.00
2019-05-20T11:14:28.415Z,91.60
2019-05-20T11:16:56.842Z,92.00
2019-05-20T11:19:25.246Z,91.70
2019-05-20T11:21:53.665Z,92.70
2019-05-20T11:24:22.074Z,92.40
2019-05-20T11:26:50.495Z,92.90
2019-05-20T11:29:19.145Z,92.10
2019-05-20T11:31:47.817Z,92.70
2019-05-20T11:34:16.217Z,92.30
2019-05-20T11:36:44.650Z,92.20
2019-05-20T11:39:13.053Z,92.50
2019-05-20T11:41:52.887Z,92.60
2019-05-20T11:44:12.141Z,93.00
2019-05-20T11:46:40.714Z,92.80
2019-05-20T11:49:09.112Z,93.70
2019-05-20T11:51:37.521Z,92.90
2019-05-20T11:54:05.917Z,93.30
2019-05-20T11:56:34.324Z,94.70
2019-05-20T11:59:02.901Z,95.90
2019-05-20T12:01:31.339Z,96.00
2019-05-20T12:03:59.762Z,96.60
2019-05-20T12:06:28.264Z,98.20
2019-05-20T12:08:56.707Z,98.00
2019-05-20T12:11:25.137Z,98.80
2019-05-20T12:13:53.561Z,99.20
2019-05-20T12:16:21.966Z,99.40
2019-05-20T12:18:50.381Z,99.90
2019-05-20T12:21:18.785Z,99.90
2019-05-20T12:23:47.211Z,99.90
2019-05-20T12:26:15.691Z,99.90
2019-05-20T12:28:44.108Z,99.90
2019-05-20T12:31:12.556Z,99.90
2019-05-20T12:33:40.992Z,99.90
2019-05-20T12:36:09.400Z,99.90
2019-05-20T12:38:37.836Z,99.90
2019-05-20T12:41:06.238Z,99.90
2019-05-20T12:43:34.668Z,99.90
2019-05-20T12:46:03.542Z,99.90
2019-05-20T12:48:34.838Z,99.90
2019-05-20T12:51:03.272Z,99.90
2019-05-20T12:53:31.657Z,99.90
2019-05-20T12:56:00.064Z,99.90
2019-05-20T12:58:28.634Z,99.90
2019-05-20T13:00:59.521Z,99.90
2019-05-20T13:03:27.978Z,99.90
2019-05-20T13:05:58.515Z,99.90
2019-05-20T13:08:26.857Z,99.90
2019-05-20T13:10:55.321Z,99.90
2019-05-20T13:13:23.749Z,99.90
2019-05-20T13:15:52.150Z,99.90
2019-05-20T13:18:20.565Z,99.90
2019-05-20T13:20:48.969Z,99.90
2019-05-20T13:23:17.366Z,99.90
2019-05-20T13:25:45.754Z,99.90
2019-05-20T13:28:15.216Z,99.90
2019-05-20T13:30:43.668Z,99.90
2019-05-20T13:33:12.099Z,99.90
2019-05-20T13:35:40.498Z,99.90
2019-05-20T13:38:08.896Z,99.90
2019-05-20T13:40:46.614Z,99.90
2019-05-20T13:43:07.453Z,99.80
2019-05-20T13:45:35.839Z,99.80
2019-05-20T13:48:04.261Z,99.60
2019-05-20T13:50:32.803Z,99.60
2019-05-20T13:53:01.217Z,99.60
2019-05-20T13:55:29.628Z,99.60
2019-05-20T13:57:58.053Z,99.60
2019-05-20T14:00:26.586Z,99.60
2019-05-20T14:02:55.081Z,99.90
2019-05-20T14:05:23.497Z,99.90
2019-05-20T14:07:51.931Z,99.90
2019-05-20T14:10:20.525Z,99.30
2019-05-20T14:12:48.945Z,99.30
2019-05-20T14:15:18.929Z,99.30
2019-05-20T14:17:47.457Z,98.90
2019-05-20T14:20:16.151Z,99.00
2019-05-20T14:22:44.555Z,98.90
2019-05-20T14:25:13.103Z,99.20
2019-05-20T14:27:41.521Z,98.60
2019-05-20T14:30:10.572Z,98.20
2019-05-20T14:32:38.950Z,98.60
2019-05-20T14:35:07.714Z,98.50
2019-05-20T14:37:36.200Z,98.50
2019-05-20T14:40:06.954Z,98.50
2019-05-20T14:42:35.360Z,98.30
2019-05-20T14:45:04.611Z,98.40
2019-05-20T14:47:33.061Z,98.50
2019-05-20T14:50:01.488Z,99.00
2019-05-20T14:52:29.885Z,98.10
2019-05-20T14:54:58.302Z,98.20
2019-05-20T14:57:26.699Z,98.20
2019-05-20T14:59:55.131Z,98.20
2019-05-20T15:02:23.540Z,98.40
2019-05-20T15:04:52.530Z,98.50
2019-05-20T15:07:30.324Z,98.20
2019-05-20T15:09:51.136Z,98.00
2019-05-20T15:12:19.608Z,98.60
2019-05-20T15:14:48.026Z,97.80
2019-05-20T15:17:16.537Z,98.10
2019-05-20T15:19:44.957Z,98.50
2019-05-20T15:22:13.576Z,98.60
2019-05-20T15:24:42.102Z,98.50
2019-05-20T15:27:10.516Z,98.50
2019-05-20T15:29:38.941Z,98.70
2019-05-20T15:32:07.338Z,98.90
2019-05-20T15:34:35.750Z,99.10
2019-05-20T15:37:04.196Z,98.50
2019-05-20T15:39:32.762Z,98.10
2019-05-20T15:42:01.273Z,98.30
2019-05-20T15:44:29.848Z,98.30
2019-05-20T15:46:58.266Z,98.70
2019-05-20T15:49:28.038Z,98.90
2019-05-20T15:51:56.470Z,98.90
2019-05-20T15:54:25.019Z,99.10
2019-05-20T15:56:55.109Z,99.90
2019-05-20T15:59:23.803Z,99.90
2019-05-20T16:01:52.211Z,99.90
2019-05-20T16:04:20.617Z,99.90
2019-05-20T16:06:49.016Z,99.90
2019-05-20T16:09:17.677Z,99.90
2019-05-20T16:11:46.306Z,99.90
2019-05-20T16:14:14.717Z,99.90
2019-05-20T16:16:43.136Z,99.90
2019-05-20T16:19:11.544Z,99.90
2019-05-20T16:21:39.959Z,99.90
2019-05-20T16:24:08.369Z,99.90
2019-05-20T16:26:36.794Z,99.90
2019-05-20T16:29:05.271Z,99.90
2019-05-20T16:31:33.754Z,99.90
2019-05-20T16:34:02.232Z,99.90
2019-05-20T16:36:30.855Z,99.90
2019-05-20T16:38:59.379Z,99.90
2019-05-20T16:41:27.798Z,99.90
2019-05-20T16:43:57.448Z,99.90
2019-05-20T16:46:29.700Z,99.90
2019-05-20T16:49:01.065Z,99.90
2019-05-20T16:51:30.385Z,99.90
2019-05-20T16:54:03.050Z,99.90
2019-05-20T16:56:32.636Z,99.90
2019-05-20T16:59:01.033Z,99.90
2019-05-20T17:01:44.239Z,99.90
2019-05-20T17:04:00.815Z,99.90
2019-05-20T17:06:30.271Z,99.90
2019-05-20T17:08:58.682Z,99.90
2019-05-20T17:11:31.013Z,99.90
2019-05-20T17:13:59.454Z,99.90
2019-05-20T17:16:27.915Z,99.90
2019-05-20T17:18:56.769Z,99.90
2019-05-20T17:21:25.190Z,99.90
2019-05-20T17:23:53.598Z,99.90
2019-05-20T17:26:22.007Z,99.90
2019-05-20T17:28:50.417Z,99.90
2019-05-20T17:31:18.884Z,99.90
2019-05-20T17:33:47.293Z,99.90
2019-05-20T17:36:15.768Z,99.90
2019-05-20T17:38:44.215Z,99.90
2019-05-20T17:41:12.673Z,99.90
2019-05-20T17:43:41.090Z,99.90
2019-05-20T17:46:09.580Z,99.90
2019-05-20T17:48:37.981Z,99.90
2019-05-20T17:51:06.698Z,99.90
2019-05-20T17:53:36.342Z,99.90
2019-05-20T17:56:09.909Z,99.90
2019-05-20T17:58:38.355Z,99.90
2019-05-20T18:01:15.312Z,99.90
2019-05-20T18:03:36.992Z,99.90
2019-05-20T18:09:37.240Z,99.90
2019-05-20T18:12:05.724Z,99.90
2019-05-20T18:14:34.128Z,99.90
2019-05-20T18:17:02.613Z,99.90
2019-05-20T18:19:31.037Z,99.90
2019-05-20T18:21:59.787Z,99.90
2019-05-20T18:24:28.180Z,99.90
2019-05-20T18:26:56.606Z,99.90
2019-05-20T18:29:25.003Z,99.90
2019-05-20T18:31:53.408Z,99.90
2019-05-20T18:34:21.873Z,99.90
2019-05-20T18:36:50.268Z,99.90
2019-05-20T18:39:18.715Z,99.90
2019-05-20T18:41:47.110Z,99.90
2019-05-20T18:44:15.562Z,99.90
2019-05-20T18:46:44.000Z,99.90
2019-05-20T18:49:12.442Z,99.90
2019-05-20T18:51:40.855Z,99.90
2019-05-20T18:54:10.187Z,99.90
2019-05-20T18:56:38.599Z,99.90
2019-05-20T18:59:08.192Z,99.90
2019-05-20T19:01:50.604Z,99.90
2019-05-20T19:04:07.235Z,99.90
2019-05-20T19:06:35.647Z,99.90
2019-05-20T19:09:05.602Z,99.90
2019-05-20T19:11:34.046Z,99.90
2019-05-20T19:14:02.510Z,99.90
2019-05-20T19:16:30.907Z,99.90
2019-05-20T19:18:59.329Z,99.90
2019-05-20T19:21:27.716Z,99.90
2019-05-20T19:23:56.132Z,99.90
2019-05-20T19:26:25.575Z,99.90
2019-05-20T19:28:54.177Z,99.90
2019-05-20T19:31:22.573Z,99.90
2019-05-20T19:33:50.982Z,99.90
2019-05-20T19:36:19.495Z,99.90
2019-05-20T19:38:47.919Z,99.90
2019-05-20T19:41:16.324Z,99.90
2019-05-20T19:43:44.775Z,99.90
2019-05-20T19:46:13.160Z,99.90
2019-05-20T19:48:41.573Z,99.90
2019-05-20T19:51:09.980Z,99.90
2019-05-20T19:53:39.443Z,99.90
2019-05-20T19:56:10.142Z,99.90
2019-05-20T19:58:41.709Z,99.90
2019-05-20T20:01:12.564Z,99.90
2019-05-20T20:03:42.827Z,99.90
2019-05-20T20:06:11.230Z,99.90
2019-05-20T20:08:43.084Z,99.90
2019-05-20T20:11:12.232Z,99.90
2019-05-20T20:13:40.621Z,99.90
2019-05-20T20:16:09.073Z,99.90
2019-05-20T20:18:37.688Z,99.90
2019-05-20T20:21:06.172Z,99.90
2019-05-20T20:23:36.976Z,99.90
2019-05-20T20:26:05.964Z,99.90
2019-05-20T20:28:34.412Z,99.90
2019-05-20T20:31:02.827Z,99.90
2019-05-20T20:33:31.237Z,99.90
2019-05-20T20:35:59.656Z,99.90
2019-05-20T20:38:28.068Z,99.90
2019-05-20T20:40:56.468Z,99.90
2019-05-20T20:43:24.903Z,99.90
2019-05-20T20:45:53.877Z,99.90
2019-05-20T20:48:22.269Z,99.90
2019-05-20T20:50:50.677Z,99.90
2019-05-20T20:53:19.060Z,99.90
2019-05-20T20:55:47.470Z,99.90
2019-05-20T20:58:15.888Z,99.90
2019-05-20T21:00:44.289Z,99.90
2019-05-20T21:03:12.678Z,99.90
2019-05-20T21:05:41.085Z,99.90
2019-05-20T21:08:09.506Z,99.90
2019-05-20T21:10:37.916Z,99.90
2019-05-20T21:13:06.323Z,99.90
2019-05-20T21:15:34.735Z,99.90
2019-05-20T21:18:03.161Z,99.90
2019-05-20T21:20:31.562Z,99.90
2019-05-20T21:22:59.974Z,99.90
2019-05-20T21:25:28.392Z,99.90
2019-05-20T21:27:56.816Z,99.90
2019-05-20T21:30:25.209Z,99.90
2019-05-20T21:33:08.260Z,99.90
2019-05-20T21:35:23.744Z,99.90
2019-05-20T21:37:52.162Z,99.90
2019-05-20T21:40:20.536Z,99.90
2019-05-20T21:42:48.996Z,99.90
2019-05-20T21:45:17.392Z,99.90
2019-05-20T21:47:45.836Z,99.90
2019-05-20T21:50:14.691Z,99.90
2019-05-20T21:52:43.106Z,99.90
2019-05-20T21:55:13.503Z,99.90
2019-05-20T21:57:41.926Z,99.90
2019-05-20T22:00:12.807Z,99.90
2019-05-20T22:02:41.272Z,99.90
2019-05-20T22:05:09.917Z,99.90
2019-05-20T22:07:38.374Z,99.90
2019-05-20T22:10:07.686Z,99.90
2019-05-20T22:12:36.099Z,99.90
2019-05-20T22:15:05.874Z,99.90
2019-05-20T22:17:34.368Z,99.90
2019-05-20T22:20:02.853Z,99.90
2019-05-20T22:22:32.936Z,99.90
2019-05-20T22:25:01.337Z,99.90
2019-05-20T22:27:29.769Z,99.90
2019-05-20T22:29:58.433Z,99.90
2019-05-20T22:32:26.908Z,99.90
2019-05-20T22:34:55.336Z,99.90
2019-05-20T22:37:23.744Z,99.90
2019-05-20T22:39:52.375Z,99.90
2019-05-20T22:42:20.803Z,99.90
2019-05-20T22:44:49.199Z,99.90
2019-05-20T22:47:17.621Z,99.90
2019-05-20T22:49:46.042Z,99.90
2019-05-20T22:52:14.443Z,99.90
2019-05-20T22:54:42.844Z,99.90
2019-05-20T22:57:11.320Z,99.90
2019-05-20T22:59:39.742Z,99.90
2019-05-20T23:02:08.153Z,99.90
2019-05-20T23:04:36.572Z,99.90
2019-05-20T23:07:05.234Z,99.90
2019-05-20T23:09:33.642Z,99.90
2019-05-20T23:12:02.073Z,99.90
2019-05-20T23:14:30.471Z,99.90
2019-05-20T23:16:58.968Z,99.90
2019-05-20T23:19:27.421Z,99.90
2019-05-20T23:21:55.811Z,99.90
2019-05-20T23:24:24.243Z,99.90
2019-05-20T23:26:52.674Z,99.90
2019-05-20T23:29:21.076Z,99.90
2019-05-20T23:31:49.483Z,99.90
2019-05-20T23:34:17.907Z,99.90
2019-05-20T23:36:46.335Z,99.90
2019-05-20T23:39:14.993Z,99.90
2019-05-20T23:41:43.652Z,99.90
2019-05-20T23:44:12.075Z,99.90
2019-05-20T23:46:40.504Z,99.90
2019-05-20T23:49:08.916Z,99.90
2019-05-20T23:51:37.351Z,99.90
2019-05-20T23:54:05.787Z,99.90
2019-05-20T23:56:34.197Z,99.90
2019-05-20T23:59:02.672Z,99.90
